sensor_id;sensor_type;location;lat;lon;timestamp;pressure;altitude;pressure_sealevel;temperature;humidity
55490;BME280;44029;52.956;4.772;2023-01-01T00:01:13;100457.44;;;13.28;100.00
55490;BME280;44029;52.956;4.772;2023-01-01T00:03:38;100461.28;;;13.06;100.00
55490;BME280;44029;52.956;4.772;2023-01-01T00:06:09;100465.13;;;13.21;100.00
55490;BME280;44029;52.956;4.772;2023-01-01T00:08:36;100469.28;;;13.18;100.00
55490;BME280;44029;52.956;4.772;2023-01-01T00:11:06;100468.72;;;13.16;100.00
55490;BME280;44029;52.956;4.772;2023-01-01T00:13:32;100477.25;;;13.14;100.00
55490;BME280;44029;52.956;4.772;2023-01-01T00:18:30;100474.78;;;13.13;100.00
55490;BME280;44029;52.956;4.772;2023-01-01T00:21:12;100487.97;;;13.21;100.00
55490;BME280;44029;52.956;4.772;2023-01-01T00:23:38;100480.28;;;13.13;100.00
55490;BME280;44029;52.956;4.772;2023-01-01T00:26:12;100486.88;;;13.17;100.00
55490;BME280;44029;52.956;4.772;2023-01-01T00:28:38;100477.81;;;13.11;100.00
55490;BME280;44029;52.956;4.772;2023-01-01T00:31:14;100479.97;;;13.25;100.00
55490;BME280;44029;52.956;4.772;2023-01-01T00:33:41;100476.44;;;13.09;100.00
55490;BME280;44029;52.956;4.772;2023-01-01T00:36:12;100494.31;;;13.11;100.00
55490;BME280;44029;52.956;4.772;2023-01-01T00:38:38;100503.38;;;13.12;100.00
55490;BME280;44029;52.956;4.772;2023-01-01T00:41:03;100507.22;;;13.06;100.00
55490;BME280;44029;52.956;4.772;2023-01-01T00:43:29;100503.94;;;13.09;100.00
55490;BME280;44029;52.956;4.772;2023-01-01T00:45:54;100511.09;;;13.00;100.00
55490;BME280;44029;52.956;4.772;2023-01-01T00:48:20;100514.38;;;13.07;100.00
55490;BME280;44029;52.956;4.772;2023-01-01T00:50:49;100524.84;;;13.05;100.00
55490;BME280;44029;52.956;4.772;2023-01-01T00:53:15;100532.53;;;12.92;100.00
55490;BME280;44029;52.956;4.772;2023-01-01T00:55:41;100538.81;;;12.88;100.00
55490;BME280;44029;52.956;4.772;2023-01-01T00:58:07;100545.69;;;12.70;100.00
55490;BME280;44029;52.956;4.772;2023-01-01T01:00:33;100552.00;;;12.70;100.00
55490;BME280;44029;52.956;4.772;2023-01-01T01:02:58;100564.66;;;12.66;100.00
55490;BME280;44029;52.956;4.772;2023-01-01T01:05:23;100564.09;;;12.64;100.00
55490;BME280;44029;52.956;4.772;2023-01-01T01:07:49;100572.28;;;12.54;100.00
55490;BME280;44029;52.956;4.772;2023-01-01T01:10:15;100574.50;;;12.62;100.00
55490;BME280;44029;52.956;4.772;2023-01-01T01:12:41;100581.44;;;12.70;100.00
55490;BME280;44029;52.956;4.772;2023-01-01T01:15:07;100578.38;;;12.61;100.00
55490;BME280;44029;52.956;4.772;2023-01-01T01:17:32;100584.69;;;12.62;100.00
55490;BME280;44029;52.956;4.772;2023-01-01T01:19:58;100592.09;;;12.56;100.00
55490;BME280;44029;52.956;4.772;2023-01-01T01:22:24;100599.03;;;12.74;100.00
55490;BME280;44029;52.956;4.772;2023-01-01T01:24:50;100587.97;;;12.64;100.00
55490;BME280;44029;52.956;4.772;2023-01-01T01:27:15;100597.06;;;12.64;100.00
55490;BME280;44029;52.956;4.772;2023-01-01T01:29:41;100600.31;;;12.56;100.00
55490;BME280;44029;52.956;4.772;2023-01-01T01:32:06;100602.75;;;12.42;100.00
55490;BME280;44029;52.956;4.772;2023-01-01T01:34:31;100584.38;;;12.48;100.00
55490;BME280;44029;52.956;4.772;2023-01-01T01:36:57;100605.25;;;12.44;100.00
55490;BME280;44029;52.956;4.772;2023-01-01T01:39:22;100603.06;;;12.46;100.00
55490;BME280;44029;52.956;4.772;2023-01-01T01:41:48;100606.63;;;12.46;100.00
55490;BME280;44029;52.956;4.772;2023-01-01T01:48:11;100600.88;;;12.58;100.00
55490;BME280;44029;52.956;4.772;2023-01-01T01:53:31;100576.66;;;12.45;100.00
55490;BME280;44029;52.956;4.772;2023-01-01T01:56:01;100582.97;;;12.40;100.00
55490;BME280;44029;52.956;4.772;2023-01-01T01:58:29;100581.31;;;12.39;100.00
55490;BME280;44029;52.956;4.772;2023-01-01T02:00:55;100594.19;;;12.33;100.00
55490;BME280;44029;52.956;4.772;2023-01-01T02:03:41;100599.78;;;12.54;100.00
55490;BME280;44029;52.956;4.772;2023-01-01T02:06:09;100610.22;;;12.62;100.00
55490;BME280;44029;52.956;4.772;2023-01-01T02:08:35;100638.50;;;12.52;100.00
55490;BME280;44029;52.956;4.772;2023-01-01T02:11:01;100621.47;;;12.50;100.00
55490;BME280;44029;52.956;4.772;2023-01-01T02:13:26;100628.06;;;12.54;100.00
55490;BME280;44029;52.956;4.772;2023-01-01T02:18:43;100631.38;;;12.56;100.00
55490;BME280;44029;52.956;4.772;2023-01-01T02:21:13;100634.06;;;12.41;100.00
55490;BME280;44029;52.956;4.772;2023-01-01T02:29:45;100616.19;;;12.38;100.00
55490;BME280;44029;52.956;4.772;2023-01-01T02:32:20;100640.38;;;12.42;100.00
55490;BME280;44029;52.956;4.772;2023-01-01T02:40:46;100646.63;;;12.27;100.00
55490;BME280;44029;52.956;4.772;2023-01-01T02:43:13;100653.25;;;12.36;100.00
55490;BME280;44029;52.956;4.772;2023-01-01T02:45:38;100665.59;;;12.28;100.00
55490;BME280;44029;52.956;4.772;2023-01-01T02:48:37;100671.06;;;12.28;100.00
55490;BME280;44029;52.956;4.772;2023-01-01T02:51:31;100651.66;;;12.40;100.00
55490;BME280;44029;52.956;4.772;2023-01-01T02:57:20;100652.41;;;12.30;100.00
55490;BME280;44029;52.956;4.772;2023-01-01T03:00:06;100652.38;;;12.20;100.00
55490;BME280;44029;52.956;4.772;2023-01-01T03:11:16;100664.59;;;12.02;100.00
55490;BME280;44029;52.956;4.772;2023-01-01T03:13:51;100672.22;;;11.95;100.00
55490;BME280;44029;52.956;4.772;2023-01-01T03:16:24;100691.50;;;12.00;100.00
55490;BME280;44029;52.956;4.772;2023-01-01T03:18:59;100691.75;;;11.98;100.00
55490;BME280;44029;52.956;4.772;2023-01-01T03:24:21;100693.22;;;12.11;100.00
55490;BME280;44029;52.956;4.772;2023-01-01T03:26:53;100699.47;;;12.02;100.00
55490;BME280;44029;52.956;4.772;2023-01-01T03:29:21;100700.34;;;12.07;100.00
55490;BME280;44029;52.956;4.772;2023-01-01T03:31:49;100692.06;;;12.02;100.00
55490;BME280;44029;52.956;4.772;2023-01-01T03:34:21;100685.25;;;12.10;100.00
55490;BME280;44029;52.956;4.772;2023-01-01T03:36:54;100670.19;;;12.12;100.00
55490;BME280;44029;52.956;4.772;2023-01-01T03:39:35;100661.59;;;12.04;100.00
55490;BME280;44029;52.956;4.772;2023-01-01T03:42:16;100686.34;;;12.09;100.00
55490;BME280;44029;52.956;4.772;2023-01-01T03:44:59;100682.25;;;12.11;100.00
55490;BME280;44029;52.956;4.772;2023-01-01T03:47:27;100671.75;;;12.03;100.00
55490;BME280;44029;52.956;4.772;2023-01-01T03:49:53;100698.88;;;11.94;100.00
55490;BME280;44029;52.956;4.772;2023-01-01T03:52:39;100702.31;;;12.17;100.00
55490;BME280;44029;52.956;4.772;2023-01-01T03:55:32;100711.06;;;12.09;100.00
55490;BME280;44029;52.956;4.772;2023-01-01T03:58:02;100722.34;;;12.12;100.00
55490;BME280;44029;52.956;4.772;2023-01-01T04:00:37;100733.91;;;12.14;100.00
55490;BME280;44029;52.956;4.772;2023-01-01T04:03:09;100741.13;;;12.26;100.00
55490;BME280;44029;52.956;4.772;2023-01-01T04:05:40;100727.34;;;12.21;100.00
55490;BME280;44029;52.956;4.772;2023-01-01T04:08:07;100730.38;;;12.24;100.00
55490;BME280;44029;52.956;4.772;2023-01-01T04:10:35;100725.53;;;12.42;100.00
55490;BME280;44029;52.956;4.772;2023-01-01T04:13:03;100720.97;;;12.15;100.00
55490;BME280;44029;52.956;4.772;2023-01-01T04:15:29;100724.25;;;12.12;100.00
55490;BME280;44029;52.956;4.772;2023-01-01T04:17:55;100718.44;;;12.08;100.00
55490;BME280;44029;52.956;4.772;2023-01-01T04:20:21;100706.13;;;12.11;100.00
55490;BME280;44029;52.956;4.772;2023-01-01T04:22:47;100718.75;;;12.12;100.00
55490;BME280;44029;52.956;4.772;2023-01-01T04:25:13;100727.97;;;11.95;100.00
55490;BME280;44029;52.956;4.772;2023-01-01T04:27:39;100735.38;;;11.95;100.00
55490;BME280;44029;52.956;4.772;2023-01-01T04:30:07;100730.03;;;11.83;100.00
55490;BME280;44029;52.956;4.772;2023-01-01T04:32:32;100732.78;;;11.83;100.00
55490;BME280;44029;52.956;4.772;2023-01-01T04:34:58;100740.47;;;11.81;100.00
55490;BME280;44029;52.956;4.772;2023-01-01T04:37:24;100744.28;;;11.80;100.00
55490;BME280;44029;52.956;4.772;2023-01-01T04:39:49;100758.69;;;11.92;100.00
55490;BME280;44029;52.956;4.772;2023-01-01T04:42:15;100761.50;;;11.97;100.00
55490;BME280;44029;52.956;4.772;2023-01-01T04:44:40;100760.59;;;11.92;100.00
55490;BME280;44029;52.956;4.772;2023-01-01T04:47:05;100765.66;;;12.05;100.00
55490;BME280;44029;52.956;4.772;2023-01-01T04:49:31;100769.50;;;12.04;100.00
55490;BME280;44029;52.956;4.772;2023-01-01T04:51:56;100767.84;;;12.03;100.00
55490;BME280;44029;52.956;4.772;2023-01-01T04:54:21;100775.78;;;11.99;100.00
55490;BME280;44029;52.956;4.772;2023-01-01T04:56:47;100768.84;;;11.92;100.00
55490;BME280;44029;52.956;4.772;2023-01-01T04:59:12;100782.97;;;11.78;100.00
55490;BME280;44029;52.956;4.772;2023-01-01T05:01:37;100781.75;;;11.91;100.00
55490;BME280;44029;52.956;4.772;2023-01-01T05:04:03;100775.44;;;11.91;100.00
55490;BME280;44029;52.956;4.772;2023-01-01T05:06:28;100772.69;;;11.91;100.00
55490;BME280;44029;52.956;4.772;2023-01-01T05:08:55;100788.50;;;11.84;100.00
55490;BME280;44029;52.956;4.772;2023-01-01T05:11:23;100784.47;;;11.91;100.00
55490;BME280;44029;52.956;4.772;2023-01-01T05:13:51;100769.84;;;11.86;100.00
55490;BME280;44029;52.956;4.772;2023-01-01T05:16:19;100770.00;;;11.96;100.00
55490;BME280;44029;52.956;4.772;2023-01-01T05:18:45;100778.16;;;11.91;100.00
55490;BME280;44029;52.956;4.772;2023-01-01T05:21:15;100780.97;;;11.96;100.00
55490;BME280;44029;52.956;4.772;2023-01-01T05:23:41;100772.84;;;11.84;100.00
55490;BME280;44029;52.956;4.772;2023-01-01T05:26:08;100791.81;;;11.86;100.00
55490;BME280;44029;52.956;4.772;2023-01-01T05:28:34;100797.84;;;11.83;100.00
55490;BME280;44029;52.956;4.772;2023-01-01T05:31:07;100792.38;;;11.88;100.00
55490;BME280;44029;52.956;4.772;2023-01-01T05:33:34;100788.56;;;11.89;100.00
55490;BME280;44029;52.956;4.772;2023-01-01T05:35:59;100796.03;;;11.93;100.00
55490;BME280;44029;52.956;4.772;2023-01-01T05:38:25;100802.97;;;11.74;100.00
55490;BME280;44029;52.956;4.772;2023-01-01T05:40:50;100810.56;;;11.67;100.00
55490;BME280;44029;52.956;4.772;2023-01-01T05:43:16;100819.44;;;11.74;100.00
55490;BME280;44029;52.956;4.772;2023-01-01T05:45:42;100817.84;;;11.56;100.00
55490;BME280;44029;52.956;4.772;2023-01-01T05:48:08;100816.75;;;11.79;100.00
55490;BME280;44029;52.956;4.772;2023-01-01T05:50:33;100828.09;;;11.66;100.00
55490;BME280;44029;52.956;4.772;2023-01-01T05:52:59;100828.38;;;11.64;100.00
55490;BME280;44029;52.956;4.772;2023-01-01T05:55:24;100840.25;;;11.70;100.00
55490;BME280;44029;52.956;4.772;2023-01-01T05:57:49;100833.88;;;11.64;100.00
55490;BME280;44029;52.956;4.772;2023-01-01T06:00:15;100847.63;;;11.69;100.00
55490;BME280;44029;52.956;4.772;2023-01-01T06:02:40;100864.09;;;11.69;100.00
55490;BME280;44029;52.956;4.772;2023-01-01T06:05:06;100856.34;;;11.61;100.00
55490;BME280;44029;52.956;4.772;2023-01-01T06:07:31;100869.41;;;11.54;100.00
55490;BME280;44029;52.956;4.772;2023-01-01T06:09:57;100862.84;;;11.55;100.00
55490;BME280;44029;52.956;4.772;2023-01-01T06:12:22;100869.00;;;11.67;100.00
55490;BME280;44029;52.956;4.772;2023-01-01T06:14:47;100869.47;;;11.59;100.00
55490;BME280;44029;52.956;4.772;2023-01-01T06:17:12;100874.00;;;11.48;100.00
55490;BME280;44029;52.956;4.772;2023-01-01T06:19:38;100880.47;;;11.59;100.00
55490;BME280;44029;52.956;4.772;2023-01-01T06:22:03;100889.19;;;11.56;100.00
55490;BME280;44029;52.956;4.772;2023-01-01T06:24:30;100887.97;;;11.47;100.00
55490;BME280;44029;52.956;4.772;2023-01-01T06:26:55;100886.94;;;11.53;100.00
55490;BME280;44029;52.956;4.772;2023-01-01T06:29:20;100882.00;;;11.50;100.00
55490;BME280;44029;52.956;4.772;2023-01-01T06:31:46;100884.66;;;11.45;100.00
55490;BME280;44029;52.956;4.772;2023-01-01T06:34:11;100883.78;;;11.39;100.00
55490;BME280;44029;52.956;4.772;2023-01-01T06:36:36;100898.94;;;11.47;100.00
55490;BME280;44029;52.956;4.772;2023-01-01T06:39:02;100907.25;;;11.52;100.00
55490;BME280;44029;52.956;4.772;2023-01-01T06:41:28;100909.59;;;11.43;100.00
55490;BME280;44029;52.956;4.772;2023-01-01T06:43:55;100912.50;;;11.53;100.00
55490;BME280;44029;52.956;4.772;2023-01-01T06:46:32;100922.44;;;11.59;100.00
55490;BME280;44029;52.956;4.772;2023-01-01T06:49:03;100923.72;;;11.52;100.00
55490;BME280;44029;52.956;4.772;2023-01-01T06:51:31;100938.47;;;11.46;100.00
55490;BME280;44029;52.956;4.772;2023-01-01T06:53:59;100944.63;;;11.58;100.00
55490;BME280;44029;52.956;4.772;2023-01-01T06:56:25;100941.19;;;11.46;100.00
55490;BME280;44029;52.956;4.772;2023-01-01T06:58:50;100946.41;;;11.47;100.00
55490;BME280;44029;52.956;4.772;2023-01-01T07:01:18;100951.56;;;11.44;100.00
55490;BME280;44029;52.956;4.772;2023-01-01T07:03:49;100961.09;;;11.58;100.00
55490;BME280;44029;52.956;4.772;2023-01-01T07:06:15;100965.94;;;11.51;100.00
55490;BME280;44029;52.956;4.772;2023-01-01T07:08:40;100977.22;;;11.54;100.00
55490;BME280;44029;52.956;4.772;2023-01-01T07:11:05;100977.44;;;11.48;100.00
55490;BME280;44029;52.956;4.772;2023-01-01T07:13:31;100975.03;;;11.34;100.00
55490;BME280;44029;52.956;4.772;2023-01-01T07:15:57;100976.84;;;11.46;100.00
55490;BME280;44029;52.956;4.772;2023-01-01T07:18:23;100992.06;;;11.53;100.00
55490;BME280;44029;52.956;4.772;2023-01-01T07:20:57;101008.75;;;11.52;100.00
55490;BME280;44029;52.956;4.772;2023-01-01T07:23:24;101015.25;;;11.46;100.00
55490;BME280;44029;52.956;4.772;2023-01-01T07:25:50;101025.22;;;11.52;100.00
55490;BME280;44029;52.956;4.772;2023-01-01T07:28:17;101016.34;;;11.45;100.00
55490;BME280;44029;52.956;4.772;2023-01-01T07:30:42;101036.78;;;11.37;100.00
55490;BME280;44029;52.956;4.772;2023-01-01T07:33:12;101047.50;;;11.55;100.00
55490;BME280;44029;52.956;4.772;2023-01-01T07:35:38;101063.53;;;11.47;100.00
55490;BME280;44029;52.956;4.772;2023-01-01T07:38:03;101057.72;;;11.43;100.00
55490;BME280;44029;52.956;4.772;2023-01-01T07:40:29;101085.66;;;11.40;100.00
55490;BME280;44029;52.956;4.772;2023-01-01T07:42:54;101076.69;;;11.45;100.00
55490;BME280;44029;52.956;4.772;2023-01-01T07:45:19;101089.00;;;11.42;100.00
55490;BME280;44029;52.956;4.772;2023-01-01T07:47:49;101088.31;;;11.52;100.00
55490;BME280;44029;52.956;4.772;2023-01-01T07:50:16;101091.13;;;11.40;100.00
55490;BME280;44029;52.956;4.772;2023-01-01T07:52:42;101096.38;;;11.41;100.00
55490;BME280;44029;52.956;4.772;2023-01-01T07:55:11;101099.06;;;11.36;100.00
55490;BME280;44029;52.956;4.772;2023-01-01T07:57:37;101093.97;;;11.28;100.00
55490;BME280;44029;52.956;4.772;2023-01-01T08:00:03;101097.88;;;11.32;100.00
55490;BME280;44029;52.956;4.772;2023-01-01T08:02:28;101089.66;;;11.32;100.00
55490;BME280;44029;52.956;4.772;2023-01-01T08:04:53;101113.75;;;11.30;100.00
55490;BME280;44029;52.956;4.772;2023-01-01T08:07:19;101106.09;;;11.32;100.00
55490;BME280;44029;52.956;4.772;2023-01-01T08:09:44;101123.75;;;11.36;100.00
55490;BME280;44029;52.956;4.772;2023-01-01T08:12:09;101119.47;;;11.29;100.00
55490;BME280;44029;52.956;4.772;2023-01-01T08:14:35;101116.41;;;11.25;100.00
55490;BME280;44029;52.956;4.772;2023-01-01T08:17:00;101125.31;;;11.32;100.00
55490;BME280;44029;52.956;4.772;2023-01-01T08:19:25;101127.72;;;11.29;100.00
55490;BME280;44029;52.956;4.772;2023-01-01T08:21:51;101140.94;;;11.32;100.00
55490;BME280;44029;52.956;4.772;2023-01-01T08:24:16;101143.44;;;11.33;100.00
55490;BME280;44029;52.956;4.772;2023-01-01T08:26:41;101141.19;;;11.30;100.00
55490;BME280;44029;52.956;4.772;2023-01-01T08:29:09;101154.84;;;11.42;100.00
55490;BME280;44029;52.956;4.772;2023-01-01T08:31:35;101149.00;;;11.38;100.00
55490;BME280;44029;52.956;4.772;2023-01-01T08:34:00;101158.78;;;11.34;100.00
55490;BME280;44029;52.956;4.772;2023-01-01T08:36:26;101160.06;;;11.44;100.00
55490;BME280;44029;52.956;4.772;2023-01-01T08:38:51;101165.28;;;11.45;100.00
55490;BME280;44029;52.956;4.772;2023-01-01T08:41:16;101166.63;;;11.43;100.00
55490;BME280;44029;52.956;4.772;2023-01-01T08:43:42;101171.78;;;11.56;100.00
55490;BME280;44029;52.956;4.772;2023-01-01T08:46:07;101184.44;;;11.57;100.00
55490;BME280;44029;52.956;4.772;2023-01-01T08:48:32;101165.47;;;11.38;100.00
55490;BME280;44029;52.956;4.772;2023-01-01T08:50:59;101173.13;;;11.53;100.00
55490;BME280;44029;52.956;4.772;2023-01-01T08:53:26;101182.53;;;11.57;100.00
55490;BME280;44029;52.956;4.772;2023-01-01T08:56:11;101194.66;;;11.61;100.00
55490;BME280;44029;52.956;4.772;2023-01-01T08:58:38;101182.28;;;11.59;100.00
55490;BME280;44029;52.956;4.772;2023-01-01T09:01:05;101191.75;;;11.51;100.00
55490;BME280;44029;52.956;4.772;2023-01-01T09:03:31;101191.09;;;11.61;100.00
55490;BME280;44029;52.956;4.772;2023-01-01T09:05:57;101189.94;;;11.57;100.00
55490;BME280;44029;52.956;4.772;2023-01-01T09:08:22;101185.50;;;11.56;100.00
55490;BME280;44029;52.956;4.772;2023-01-01T09:10:48;101187.53;;;11.60;100.00
55490;BME280;44029;52.956;4.772;2023-01-01T09:13:16;101191.56;;;11.58;100.00
55490;BME280;44029;52.956;4.772;2023-01-01T09:15:42;101189.34;;;11.55;100.00
55490;BME280;44029;52.956;4.772;2023-01-01T09:18:08;101190.91;;;11.68;100.00
55490;BME280;44029;52.956;4.772;2023-01-01T09:20:34;101195.56;;;11.67;100.00
55490;BME280;44029;52.956;4.772;2023-01-01T09:23:00;101189.59;;;11.70;100.00
55490;BME280;44029;52.956;4.772;2023-01-01T09:25:25;101183.63;;;11.73;100.00
55490;BME280;44029;52.956;4.772;2023-01-01T09:27:57;101181.50;;;11.80;100.00
55490;BME280;44029;52.956;4.772;2023-01-01T09:30:23;101183.28;;;11.70;100.00
55490;BME280;44029;52.956;4.772;2023-01-01T09:32:49;101186.19;;;11.80;100.00
55490;BME280;44029;52.956;4.772;2023-01-01T09:35:14;101191.44;;;11.82;100.00
55490;BME280;44029;52.956;4.772;2023-01-01T09:37:39;101193.03;;;11.94;100.00
55490;BME280;44029;52.956;4.772;2023-01-01T09:40:05;101185.28;;;11.74;100.00
55490;BME280;44029;52.956;4.772;2023-01-01T09:42:44;101204.00;;;11.77;100.00
55490;BME280;44029;52.956;4.772;2023-01-01T09:45:22;101204.75;;;11.90;100.00
55490;BME280;44029;52.956;4.772;2023-01-01T09:47:59;101205.34;;;12.09;100.00
55490;BME280;44029;52.956;4.772;2023-01-01T09:50:34;101206.09;;;12.04;100.00
55490;BME280;44029;52.956;4.772;2023-01-01T09:53:10;101208.75;;;12.16;100.00
55490;BME280;44029;52.956;4.772;2023-01-01T09:55:52;101220.72;;;12.10;100.00
55490;BME280;44029;52.956;4.772;2023-01-01T09:58:23;101231.88;;;12.20;100.00
55490;BME280;44029;52.956;4.772;2023-01-01T10:00:53;101222.47;;;12.33;100.00
55490;BME280;44029;52.956;4.772;2023-01-01T10:03:29;101225.97;;;12.50;100.00
55490;BME280;44029;52.956;4.772;2023-01-01T10:09:20;101230.66;;;12.50;100.00
55490;BME280;44029;52.956;4.772;2023-01-01T10:17:02;101250.78;;;12.16;100.00
55490;BME280;44029;52.956;4.772;2023-01-01T10:19:36;101249.69;;;12.34;100.00
55490;BME280;44029;52.956;4.772;2023-01-01T10:22:08;101260.00;;;12.27;100.00
55490;BME280;44029;52.956;4.772;2023-01-01T10:24:55;101265.81;;;12.48;100.00
55490;BME280;44029;52.956;4.772;2023-01-01T10:27:46;101250.97;;;12.49;100.00
55490;BME280;44029;52.956;4.772;2023-01-01T10:30:16;101245.84;;;12.18;100.00
55490;BME280;44029;52.956;4.772;2023-01-01T10:32:42;101246.69;;;12.19;100.00
55490;BME280;44029;52.956;4.772;2023-01-01T10:35:13;101248.81;;;12.34;100.00
55490;BME280;44029;52.956;4.772;2023-01-01T10:37:39;101248.03;;;12.16;100.00
55490;BME280;44029;52.956;4.772;2023-01-01T10:40:23;101240.81;;;12.49;100.00
55490;BME280;44029;52.956;4.772;2023-01-01T10:42:55;101241.50;;;12.40;100.00
55490;BME280;44029;52.956;4.772;2023-01-01T10:45:36;101228.69;;;12.28;100.00
55490;BME280;44029;52.956;4.772;2023-01-01T10:50:45;101238.16;;;12.37;100.00
55490;BME280;44029;52.956;4.772;2023-01-01T10:55:59;101242.00;;;12.36;100.00
55490;BME280;44029;52.956;4.772;2023-01-01T10:58:39;101238.28;;;12.26;100.00
55490;BME280;44029;52.956;4.772;2023-01-01T11:01:08;101256.75;;;12.13;100.00
55490;BME280;44029;52.956;4.772;2023-01-01T11:03:35;101264.31;;;12.06;100.00
55490;BME280;44029;52.956;4.772;2023-01-01T11:06:05;101273.34;;;12.02;100.00
55490;BME280;44029;52.956;4.772;2023-01-01T11:08:36;101287.63;;;12.04;100.00
55490;BME280;44029;52.956;4.772;2023-01-01T11:11:03;101305.69;;;11.99;100.00
55490;BME280;44029;52.956;4.772;2023-01-01T11:13:29;101306.97;;;12.09;100.00
55490;BME280;44029;52.956;4.772;2023-01-01T11:15:55;101297.13;;;11.96;100.00
55490;BME280;44029;52.956;4.772;2023-01-01T11:18:26;101289.03;;;12.06;100.00
55490;BME280;44029;52.956;4.772;2023-01-01T11:20:53;101297.03;;;12.08;100.00
55490;BME280;44029;52.956;4.772;2023-01-01T11:23:32;101298.28;;;12.34;100.00
55490;BME280;44029;52.956;4.772;2023-01-01T11:26:00;101280.91;;;12.11;100.00
55490;BME280;44029;52.956;4.772;2023-01-01T11:28:26;101288.38;;;12.33;100.00
55490;BME280;44029;52.956;4.772;2023-01-01T11:33:25;101287.28;;;12.34;100.00
55490;BME280;44029;52.956;4.772;2023-01-01T11:35:53;101295.34;;;12.57;100.00
55490;BME280;44029;52.956;4.772;2023-01-01T11:38:21;101291.94;;;12.50;100.00
55490;BME280;44029;52.956;4.772;2023-01-01T11:40:51;101291.47;;;12.36;100.00
55490;BME280;44029;52.956;4.772;2023-01-01T11:43:21;101303.44;;;12.30;100.00
55490;BME280;44029;52.956;4.772;2023-01-01T11:45:48;101293.91;;;12.16;100.00
55490;BME280;44029;52.956;4.772;2023-01-01T11:48:17;101305.78;;;12.22;100.00
55490;BME280;44029;52.956;4.772;2023-01-01T11:50:55;101303.97;;;12.27;100.00
55490;BME280;44029;52.956;4.772;2023-01-01T11:55:51;101311.94;;;12.46;100.00
55490;BME280;44029;52.956;4.772;2023-01-01T12:01:10;101299.03;;;12.46;100.00
55490;BME280;44029;52.956;4.772;2023-01-01T12:03:46;101295.19;;;12.47;100.00
55490;BME280;44029;52.956;4.772;2023-01-01T12:11:31;101294.44;;;12.52;100.00
55490;BME280;44029;52.956;4.772;2023-01-01T12:14:01;101299.13;;;12.51;100.00
55490;BME280;44029;52.956;4.772;2023-01-01T12:19:13;101301.38;;;12.21;100.00
55490;BME280;44029;52.956;4.772;2023-01-01T12:21:43;101306.59;;;12.39;100.00
55490;BME280;44029;52.956;4.772;2023-01-01T12:24:11;101307.88;;;12.31;100.00
55490;BME280;44029;52.956;4.772;2023-01-01T12:26:45;101299.78;;;12.25;100.00
55490;BME280;44029;52.956;4.772;2023-01-01T12:34:58;101310.59;;;12.48;100.00
55490;BME280;44029;52.956;4.772;2023-01-01T12:43:41;101305.53;;;12.40;100.00
55490;BME280;44029;52.956;4.772;2023-01-01T13:00:01;101313.75;;;12.23;100.00
55490;BME280;44029;52.956;4.772;2023-01-01T13:02:29;101331.91;;;12.41;100.00
55490;BME280;44029;52.956;4.772;2023-01-01T13:05:02;101330.31;;;12.45;100.00
55490;BME280;44029;52.956;4.772;2023-01-01T13:07:34;101322.50;;;12.37;100.00
55490;BME280;44029;52.956;4.772;2023-01-01T13:10:24;101328.50;;;12.34;100.00
55490;BME280;44029;52.956;4.772;2023-01-01T13:12:52;101324.00;;;12.28;100.00
55490;BME280;44029;52.956;4.772;2023-01-01T13:18:07;101332.25;;;12.28;100.00
55490;BME280;44029;52.956;4.772;2023-01-01T13:21:01;101330.91;;;12.30;100.00
55490;BME280;44029;52.956;4.772;2023-01-01T13:45:05;101350.22;;;12.18;100.00
55490;BME280;44029;52.956;4.772;2023-01-01T13:48:21;101349.22;;;12.25;100.00
55490;BME280;44029;52.956;4.772;2023-01-01T13:53:26;101346.38;;;12.19;100.00
55490;BME280;44029;52.956;4.772;2023-01-01T13:56:24;101336.84;;;12.22;100.00
55490;BME280;44029;52.956;4.772;2023-01-01T14:02:25;101342.47;;;12.15;100.00
55490;BME280;44029;52.956;4.772;2023-01-01T14:04:57;101357.66;;;12.18;100.00
55490;BME280;44029;52.956;4.772;2023-01-01T14:07:44;101356.97;;;12.28;100.00
55490;BME280;44029;52.956;4.772;2023-01-01T14:10:21;101358.56;;;12.24;100.00
55490;BME280;44029;52.956;4.772;2023-01-01T14:12:47;101368.78;;;12.11;100.00
55490;BME280;44029;52.956;4.772;2023-01-01T14:15:21;101369.13;;;12.15;100.00
55490;BME280;44029;52.956;4.772;2023-01-01T14:17:49;101368.34;;;12.03;100.00
55490;BME280;44029;52.956;4.772;2023-01-01T14:20:17;101373.66;;;11.92;100.00
55490;BME280;44029;52.956;4.772;2023-01-01T14:22:47;101375.28;;;12.05;100.00
55490;BME280;44029;52.956;4.772;2023-01-01T14:25:30;101373.69;;;12.09;100.00
55490;BME280;44029;52.956;4.772;2023-01-01T14:27:55;101365.78;;;12.13;100.00
55490;BME280;44029;52.956;4.772;2023-01-01T14:30:22;101364.28;;;12.05;100.00
55490;BME280;44029;52.956;4.772;2023-01-01T14:32:55;101361.88;;;12.09;100.00
55490;BME280;44029;52.956;4.772;2023-01-01T14:35:21;101365.53;;;12.14;100.00
55490;BME280;44029;52.956;4.772;2023-01-01T14:37:47;101368.09;;;12.04;100.00
55490;BME280;44029;52.956;4.772;2023-01-01T14:40:24;101374.38;;;12.16;100.00
55490;BME280;44029;52.956;4.772;2023-01-01T14:43:11;101369.09;;;11.98;100.00
55490;BME280;44029;52.956;4.772;2023-01-01T14:45:41;101368.78;;;12.11;100.00
55490;BME280;44029;52.956;4.772;2023-01-01T14:48:17;101368.34;;;12.03;100.00
55490;BME280;44029;52.956;4.772;2023-01-01T14:50:47;101377.03;;;11.83;100.00
55490;BME280;44029;52.956;4.772;2023-01-01T14:53:15;101372.22;;;11.90;100.00
55490;BME280;44029;52.956;4.772;2023-01-01T14:55:47;101385.47;;;11.93;100.00